createdAt,value
2019-03-24T00:00:27.365Z,71.54
2019-03-24T00:01:27.473Z,71.46
2019-03-24T00:02:27.445Z,71.54
2019-03-24T00:03:27.362Z,72.59
2019-03-24T00:04:27.363Z,72.45
2019-03-24T00:05:27.418Z,72.19
2019-03-24T00:06:27.795Z,71.73
2019-03-24T00:07:27.593Z,72.3
2019-03-24T00:08:27.397Z,72.8
2019-03-24T00:09:27.359Z,72.89
2019-03-24T00:10:27.385Z,72.77
2019-03-24T00:11:27.364Z,72.7
2019-03-24T00:12:27.330Z,72.97
2019-03-24T00:13:27.334Z,73
2019-03-24T00:14:27.350Z,72.8
2019-03-24T00:15:27.344Z,72.76
2019-03-24T00:16:27.330Z,72.54
2019-03-24T00:17:27.354Z,72.68
2019-03-24T00:18:27.360Z,72.96
2019-03-24T00:19:27.401Z,72.82
2019-03-24T00:20:27.327Z,72.95
2019-03-24T00:21:27.328Z,73.32
2019-03-24T00:22:27.333Z,73.11
2019-03-24T00:23:27.322Z,73.88
2019-03-24T00:24:27.326Z,73.62
2019-03-24T00:25:27.361Z,73.73
2019-03-24T00:26:27.343Z,74
2019-03-24T00:27:27.300Z,74.02
2019-03-24T00:28:27.430Z,73.88
2019-03-24T00:29:27.384Z,73.73
2019-03-24T00:30:27.340Z,73.77
2019-03-24T00:31:27.363Z,73.73
2019-03-24T00:32:27.378Z,74.35
2019-03-24T00:33:27.370Z,74.34
2019-03-24T00:34:27.346Z,74.42
2019-03-24T00:35:27.302Z,74.51
2019-03-24T00:36:27.301Z,74.45
2019-03-24T00:37:27.325Z,74.44
2019-03-24T00:38:27.303Z,74.63
2019-03-24T00:39:27.302Z,74.49
2019-03-24T00:40:27.301Z,74.32
2019-03-24T00:41:27.302Z,73.97
2019-03-24T00:42:27.369Z,73.53
2019-03-24T00:43:27.303Z,74.46
2019-03-24T00:44:27.302Z,73.8
2019-03-24T00:45:37.489Z,74.71
2019-03-24T00:46:27.301Z,74.32
2019-03-24T00:47:27.323Z,74.09
2019-03-24T00:48:27.322Z,74.18
2019-03-24T00:49:27.310Z,74.36
2019-03-24T00:50:27.485Z,74.43
2019-03-24T00:51:27.369Z,74.11
2019-03-24T00:52:27.353Z,74.49
2019-03-24T00:53:27.278Z,74.5
2019-03-24T00:54:27.279Z,74.69
2019-03-24T00:55:27.329Z,74.66
2019-03-24T00:56:27.305Z,74.97
2019-03-24T00:57:27.272Z,74.76
2019-03-24T00:58:27.255Z,74.22
2019-03-24T00:59:29.355Z,74.91
2019-03-24T01:00:27.263Z,74.69
2019-03-24T01:01:27.347Z,74.18
2019-03-24T01:02:27.304Z,74.67
2019-03-24T01:03:27.389Z,74.58
2019-03-24T01:04:27.284Z,74.66
2019-03-24T01:05:27.279Z,74.42
2019-03-24T01:06:27.296Z,74.27
2019-03-24T01:07:27.301Z,74.84
2019-03-24T01:08:27.308Z,74.59
2019-03-24T01:09:27.299Z,75.1
2019-03-24T01:10:27.306Z,74.92
2019-03-24T01:11:27.307Z,74.96
2019-03-24T01:12:27.363Z,74.45
2019-03-24T01:13:27.253Z,74.97
2019-03-24T01:14:27.250Z,74.83
2019-03-24T01:15:27.234Z,74.83
2019-03-24T01:16:27.268Z,74.29
2019-03-24T01:17:27.296Z,74.09
2019-03-24T01:18:27.251Z,74.78
2019-03-24T01:19:27.287Z,74.96
2019-03-24T01:20:27.294Z,74.67
2019-03-24T01:21:27.260Z,74.29
2019-03-24T01:22:27.258Z,74.75
2019-03-24T01:23:27.256Z,74.65
2019-03-24T01:24:27.260Z,74.55
2019-03-24T01:25:27.242Z,74.66
2019-03-24T01:26:27.261Z,74.5
2019-03-24T01:27:27.284Z,74.87
2019-03-24T01:28:27.250Z,74.66
2019-03-24T01:29:27.273Z,74.27
2019-03-24T01:30:27.269Z,74.56
2019-03-24T01:31:27.254Z,74.82
2019-03-24T01:32:27.216Z,74.78
2019-03-24T01:33:27.479Z,74.77
2019-03-24T01:34:27.327Z,74.88
2019-03-24T01:35:27.219Z,74.55
2019-03-24T01:36:27.210Z,74.67
2019-03-24T01:37:27.197Z,74.65
2019-03-24T01:38:27.213Z,74.48
2019-03-24T01:39:27.290Z,74.8
2019-03-24T01:40:27.261Z,75.24
2019-03-24T01:41:27.225Z,75.14
2019-03-24T01:42:27.221Z,75.08
2019-03-24T01:43:27.298Z,75.01
2019-03-24T01:44:27.219Z,75.07
2019-03-24T01:45:27.198Z,75
2019-03-24T01:46:27.200Z,75.02
2019-03-24T01:47:27.197Z,74.97
2019-03-24T01:48:27.248Z,75.07
2019-03-24T01:49:27.224Z,74.95
2019-03-24T01:50:27.219Z,74.81
2019-03-24T01:51:27.205Z,74.89
2019-03-24T01:52:27.190Z,74.97
2019-03-24T01:53:27.230Z,74.85
2019-03-24T01:54:27.231Z,75.2
2019-03-24T01:55:27.501Z,74.84
2019-03-24T01:56:27.424Z,75.15
2019-03-24T01:57:27.223Z,75.37
2019-03-24T01:58:27.230Z,75.37
2019-03-24T01:59:27.248Z,75.39
2019-03-24T02:00:27.194Z,75.27
2019-03-24T02:01:27.212Z,75.86
2019-03-24T02:02:27.214Z,75.84
2019-03-24T02:03:27.169Z,75.65
2019-03-24T02:04:27.172Z,75.3
2019-03-24T02:05:27.240Z,76.21
2019-03-24T02:06:27.188Z,76.67
2019-03-24T02:07:27.166Z,76.53
2019-03-24T02:08:27.236Z,76.24
2019-03-24T02:09:27.215Z,76.87
2019-03-24T02:10:27.157Z,76.96
2019-03-24T02:11:27.240Z,76.69
2019-03-24T02:12:27.216Z,76.17
2019-03-24T02:13:27.152Z,76.82
2019-03-24T02:14:27.158Z,76.63
2019-03-24T02:15:27.180Z,76.51
2019-03-24T02:16:27.161Z,77.04
2019-03-24T02:17:27.337Z,77.01
2019-03-24T02:18:27.178Z,76.74
2019-03-24T02:19:27.168Z,76.29
2019-03-24T02:20:27.260Z,76.12
2019-03-24T02:21:27.167Z,76.54
2019-03-24T02:22:27.186Z,76.3
2019-03-24T02:23:27.174Z,75.76
2019-03-24T02:24:27.179Z,75.9
2019-03-24T02:25:27.153Z,75.93
2019-03-24T02:26:27.160Z,75.62
2019-03-24T02:27:27.150Z,75.91
2019-03-24T02:28:27.133Z,76.4
2019-03-24T02:29:27.151Z,76.05
2019-03-24T02:30:27.183Z,75.46
2019-03-24T02:31:27.140Z,75.55
2019-03-24T02:32:27.142Z,76.11
2019-03-24T02:33:27.183Z,76.46
2019-03-24T02:34:27.165Z,76.39
2019-03-24T02:35:27.138Z,76.38
2019-03-24T02:36:27.178Z,75.83
2019-03-24T02:37:27.127Z,75.59
2019-03-24T02:38:27.576Z,75.44
2019-03-24T02:39:27.173Z,75.68
2019-03-24T02:40:27.122Z,75.32
2019-03-24T02:41:27.235Z,75.82
2019-03-24T02:42:27.140Z,76.16
2019-03-24T02:43:27.092Z,75.84
2019-03-24T02:44:27.155Z,76.46
2019-03-24T02:45:27.114Z,76.07
2019-03-24T02:46:27.126Z,76.29
2019-03-24T02:47:27.147Z,76.29
2019-03-24T02:48:27.140Z,76.58
2019-03-24T02:49:27.093Z,76.64
2019-03-24T02:50:27.144Z,76.77
2019-03-24T02:51:27.118Z,77.02
2019-03-24T02:52:27.128Z,76.66
2019-03-24T02:53:27.127Z,76.63
2019-03-24T02:54:27.143Z,76.64
2019-03-24T02:55:27.109Z,76.38
2019-03-24T02:56:27.089Z,76.33
2019-03-24T02:57:27.140Z,76.62
2019-03-24T02:58:27.170Z,76.37
2019-03-24T02:59:27.233Z,76.35
2019-03-24T03:00:27.555Z,76.24
2019-03-24T03:01:27.191Z,76.08
2019-03-24T03:02:27.125Z,76.06
2019-03-24T03:03:27.097Z,76.02
2019-03-24T03:04:27.128Z,76.25
2019-03-24T03:05:27.165Z,76.77
2019-03-24T03:06:27.102Z,76.51
2019-03-24T03:07:27.150Z,76.25
2019-03-24T03:08:27.093Z,76.16
2019-03-24T03:09:27.127Z,76.21
2019-03-24T03:10:27.124Z,75.83
2019-03-24T03:11:27.125Z,76.07
2019-03-24T03:12:27.125Z,75.77
2019-03-24T03:13:27.076Z,75.92
2019-03-24T03:14:27.154Z,76.03
2019-03-24T03:15:27.116Z,75.96
2019-03-24T03:16:39.582Z,75.54
2019-03-24T03:17:27.096Z,76.27
2019-03-24T03:18:27.088Z,75.91
2019-03-24T03:19:27.086Z,76.28
2019-03-24T03:20:27.990Z,75.83
2019-03-24T03:21:27.075Z,75.72
2019-03-24T03:22:27.246Z,75.95
2019-03-24T03:23:27.103Z,76.12
2019-03-24T03:24:27.065Z,76.12
2019-03-24T03:25:27.085Z,76.21
2019-03-24T03:26:27.075Z,76.04
2019-03-24T03:27:27.084Z,76.24
2019-03-24T03:28:27.084Z,76.09
2019-03-24T03:29:27.068Z,76.25
2019-03-24T03:30:27.095Z,76.26
2019-03-24T03:31:27.413Z,76.23
2019-03-24T03:32:27.094Z,76.28
2019-03-24T03:33:27.117Z,76.66
2019-03-24T03:34:27.171Z,76.7
2019-03-24T03:35:27.151Z,76.52
2019-03-24T03:36:27.162Z,76.28
2019-03-24T03:37:27.081Z,76.67
2019-03-24T03:38:27.086Z,76.57
2019-03-24T03:39:27.077Z,76.33
2019-03-24T03:40:27.117Z,76.1
2019-03-24T03:41:27.026Z,76.52
2019-03-24T03:42:27.081Z,76.38
2019-03-24T03:43:27.068Z,76.2
2019-03-24T03:44:27.245Z,76.3
2019-03-24T03:45:27.057Z,76.49
2019-03-24T03:46:27.115Z,76.07
2019-03-24T03:47:27.112Z,76.47
2019-03-24T03:48:27.102Z,76.61
2019-03-24T03:49:27.053Z,76.91
2019-03-24T03:50:27.071Z,76.64
2019-03-24T03:51:27.049Z,76.68
2019-03-24T03:52:27.079Z,76.14
2019-03-24T03:53:27.036Z,76.48
2019-03-24T03:54:27.039Z,76.53
2019-03-24T03:55:27.017Z,76.3
2019-03-24T03:56:27.038Z,76.58
2019-03-24T03:57:27.050Z,76.61
2019-03-24T03:58:27.027Z,76.68
2019-03-24T03:59:27.057Z,76.61
2019-03-24T04:00:27.006Z,76.82
2019-03-24T04:01:27.075Z,76.64
2019-03-24T04:02:27.052Z,76.35
2019-03-24T04:03:27.022Z,76.79
2019-03-24T04:04:27.236Z,76.74
2019-03-24T04:05:27.006Z,76.73
2019-03-24T04:06:27.028Z,76.42
2019-03-24T04:07:27.042Z,76.13
2019-03-24T04:08:27.012Z,75.97
2019-03-24T04:09:27.075Z,75.95
2019-03-24T04:10:26.995Z,75.73
2019-03-24T04:11:27.028Z,75.64
2019-03-24T04:12:27.160Z,75.28
2019-03-24T04:13:27.018Z,75.26
2019-03-24T04:14:27.002Z,75.59
2019-03-24T04:15:27.063Z,75.49
2019-03-24T04:16:27.082Z,75.36
2019-03-24T04:17:26.993Z,76.12
2019-03-24T04:18:27.011Z,76.11
2019-03-24T04:19:27.022Z,76.01
2019-03-24T04:20:27.044Z,75.92
2019-03-24T04:21:27.026Z,75.65
2019-03-24T04:22:27.013Z,75.98
2019-03-24T04:23:26.988Z,75.92
2019-03-24T04:24:27.000Z,75.61
2019-03-24T04:25:27.292Z,75.58
2019-03-24T04:26:27.285Z,75.92
2019-03-24T04:27:26.991Z,76
2019-03-24T04:28:27.033Z,75.99
2019-03-24T04:29:27.034Z,76.01
2019-03-24T04:30:27.013Z,75.97
2019-03-24T04:31:27.001Z,75.85
2019-03-24T04:32:27.010Z,75.72
2019-03-24T04:33:27.003Z,75.6
2019-03-24T04:34:27.053Z,75.58
2019-03-24T04:35:27.054Z,75.6
2019-03-24T04:36:26.995Z,75.25
2019-03-24T04:37:26.987Z,75.29
2019-03-24T04:38:27.048Z,75.59
2019-03-24T04:39:27.011Z,75.92
2019-03-24T04:40:26.980Z,76.48
2019-03-24T04:41:26.988Z,76.75
2019-03-24T04:42:26.996Z,76.23
2019-03-24T04:43:26.993Z,76.76
2019-03-24T04:44:26.987Z,76.92
2019-03-24T04:45:26.958Z,76.36
2019-03-24T04:46:27.004Z,76.26
2019-03-24T04:47:27.013Z,76.24
2019-03-24T04:48:26.967Z,76.01
2019-03-24T04:49:26.974Z,76.24
2019-03-24T04:50:27.022Z,77.01
2019-03-24T04:51:26.937Z,76.86
2019-03-24T04:52:26.964Z,76.91
2019-03-24T04:53:27.001Z,76.85
2019-03-24T04:54:26.988Z,76.79
2019-03-24T04:55:26.986Z,76.74
2019-03-24T04:56:26.934Z,76.86
2019-03-24T04:57:27.012Z,77.07
2019-03-24T04:58:26.956Z,76.91
2019-03-24T04:59:26.939Z,76.62
2019-03-24T05:00:26.964Z,76.4
2019-03-24T05:01:26.931Z,76.6
2019-03-24T05:02:26.989Z,75.95
2019-03-24T05:03:26.930Z,76.1
2019-03-24T05:04:26.926Z,76.04
2019-03-24T05:05:26.935Z,76.25
2019-03-24T05:06:27.229Z,76.33
2019-03-24T05:07:26.929Z,76.06
2019-03-24T05:08:27.261Z,76.83
2019-03-24T05:09:26.958Z,77.23
2019-03-24T05:10:26.993Z,76.8
2019-03-24T05:11:26.939Z,76.6
2019-03-24T05:12:26.983Z,76.67
2019-03-24T05:13:26.893Z,76.95
2019-03-24T05:14:26.945Z,77.12
2019-03-24T05:15:26.952Z,77.39
2019-03-24T05:16:26.908Z,77.64
2019-03-24T05:17:27.652Z,77.68
2019-03-24T05:18:26.922Z,77.49
2019-03-24T05:19:26.929Z,77.47
2019-03-24T05:20:26.914Z,77.28
2019-03-24T05:21:26.940Z,77.46
2019-03-24T05:22:26.972Z,77.36
2019-03-24T05:23:26.939Z,77.46
2019-03-24T05:24:26.975Z,77.08
2019-03-24T05:25:27.029Z,77.04
2019-03-24T05:26:26.944Z,77.17
2019-03-24T05:27:26.911Z,77.23
2019-03-24T05:28:26.942Z,76.88
2019-03-24T05:29:26.921Z,76.91
2019-03-24T05:30:26.946Z,76.66
2019-03-24T05:31:26.912Z,76.8
2019-03-24T05:32:26.875Z,76.72
2019-03-24T05:33:26.871Z,76.79
2019-03-24T05:34:27.405Z,76.52
2019-03-24T05:35:26.958Z,76.34
2019-03-24T05:36:26.899Z,76.22
2019-03-24T05:37:26.920Z,76.13
2019-03-24T05:38:26.880Z,76.49
2019-03-24T05:39:26.919Z,76.68
2019-03-24T05:40:26.899Z,76.57
2019-03-24T05:41:26.910Z,76.8
2019-03-24T05:42:26.883Z,77.18
2019-03-24T05:43:26.887Z,77.3
2019-03-24T05:44:26.872Z,77.1
2019-03-24T05:45:26.871Z,77.02
2019-03-24T05:46:26.921Z,76.87
2019-03-24T05:47:37.720Z,76.62
2019-03-24T05:48:26.890Z,76.32
2019-03-24T05:49:26.874Z,77.31
2019-03-24T05:50:26.868Z,77.74
2019-03-24T05:51:26.963Z,77.58
2019-03-24T05:52:27.862Z,77.6
2019-03-24T05:53:26.879Z,77.57
2019-03-24T05:54:26.860Z,77.64
2019-03-24T05:55:26.890Z,77.63
2019-03-24T05:56:26.852Z,77.67
2019-03-24T05:57:26.849Z,77.82
2019-03-24T05:58:26.875Z,77.8
2019-03-24T05:59:26.832Z,77.98
2019-03-24T06:00:26.851Z,77.8
2019-03-24T06:01:26.837Z,77.35
2019-03-24T06:02:26.897Z,77.5
2019-03-24T06:03:26.920Z,77.83
2019-03-24T06:04:26.886Z,77.91
2019-03-24T06:05:26.859Z,78.02
2019-03-24T06:06:26.842Z,78.2
2019-03-24T06:07:26.813Z,78.12
2019-03-24T06:08:26.821Z,78.43
2019-03-24T06:09:26.868Z,78.15
2019-03-24T06:10:26.833Z,77.96
2019-03-24T06:11:26.833Z,77.98
2019-03-24T06:12:26.804Z,78.17
2019-03-24T06:13:27.068Z,78.08
2019-03-24T06:14:27.579Z,78.11
2019-03-24T06:15:26.833Z,77.93
2019-03-24T06:16:26.874Z,77.83
2019-03-24T06:17:26.878Z,77.78
2019-03-24T06:18:26.793Z,77.88
2019-03-24T06:19:26.855Z,77.14
2019-03-24T06:20:26.866Z,76.81
2019-03-24T06:21:26.835Z,76.92
2019-03-24T06:22:26.793Z,76.81
2019-03-24T06:23:26.804Z,77.12
2019-03-24T06:24:26.802Z,77.08
2019-03-24T06:25:26.862Z,77.65
2019-03-24T06:26:26.810Z,78.1
2019-03-24T06:27:26.843Z,77.46
2019-03-24T06:28:26.835Z,77.73
2019-03-24T06:29:26.779Z,78.27
2019-03-24T06:30:26.782Z,78.69
2019-03-24T06:31:26.827Z,77.76
2019-03-24T06:32:26.790Z,77.51
2019-03-24T06:33:26.845Z,77.79
2019-03-24T06:34:26.833Z,78.08
2019-03-24T06:35:27.095Z,77.42
2019-03-24T06:36:26.840Z,77.38
2019-03-24T06:37:26.786Z,77.38
2019-03-24T06:38:26.799Z,77.57
2019-03-24T06:39:26.779Z,77.45
2019-03-24T06:40:26.829Z,78.1
2019-03-24T06:41:26.794Z,78.77
2019-03-24T06:42:26.766Z,79.38
2019-03-24T06:43:26.769Z,79.21
2019-03-24T06:44:26.806Z,79
2019-03-24T06:45:29.214Z,78.28
2019-03-24T06:46:26.814Z,79.4
2019-03-24T06:47:26.762Z,79.88
2019-03-24T06:48:26.803Z,79.3
2019-03-24T06:49:26.764Z,79.02
2019-03-24T06:50:26.801Z,80.81
2019-03-24T06:51:26.746Z,80.9
2019-03-24T06:52:26.786Z,80.41
2019-03-24T06:53:26.750Z,80
2019-03-24T06:54:26.740Z,80.04
2019-03-24T06:55:26.760Z,79.59
2019-03-24T06:56:26.838Z,81.43
2019-03-24T06:57:26.835Z,80.31
2019-03-24T06:58:26.743Z,80.55
2019-03-24T06:59:26.782Z,81.05
2019-03-24T07:00:26.809Z,81.41
2019-03-24T07:01:26.750Z,80.89
2019-03-24T07:02:26.722Z,81.3
2019-03-24T07:03:26.754Z,81.48
2019-03-24T07:04:26.754Z,80.72
2019-03-24T07:05:26.825Z,80.63
2019-03-24T07:06:26.756Z,81.09
2019-03-24T07:07:26.727Z,81.57
2019-03-24T07:08:26.750Z,81.46
2019-03-24T07:09:26.819Z,80.66
2019-03-24T07:10:26.736Z,80.28
2019-03-24T07:11:26.742Z,80.89
2019-03-24T07:12:26.745Z,80.87
2019-03-24T07:13:26.742Z,80.68
2019-03-24T07:14:26.717Z,80.29
2019-03-24T07:15:26.733Z,80.6
2019-03-24T07:16:26.730Z,79.91
2019-03-24T07:17:26.726Z,81.3
2019-03-24T07:18:26.781Z,81.5
2019-03-24T07:19:26.743Z,82.26
2019-03-24T07:20:26.759Z,82.85
2019-03-24T07:21:26.805Z,83.09
2019-03-24T07:22:26.706Z,82.86
2019-03-24T07:23:26.716Z,83.5
2019-03-24T07:24:26.760Z,84.44
2019-03-24T07:25:26.743Z,85.22
2019-03-24T07:26:26.745Z,85.21
2019-03-24T07:27:26.786Z,83.97
2019-03-24T07:28:26.730Z,84.56
2019-03-24T07:29:26.715Z,85.15
2019-03-24T07:30:26.705Z,85.47
2019-03-24T07:31:26.763Z,85.67
2019-03-24T07:32:26.745Z,85.87
2019-03-24T07:33:26.696Z,86.02
2019-03-24T07:34:26.727Z,86.06
2019-03-24T07:35:26.685Z,86.05
2019-03-24T07:36:26.842Z,85.94
2019-03-24T07:37:26.687Z,85.91
2019-03-24T07:38:26.753Z,85.84
2019-03-24T07:39:26.696Z,86.11
2019-03-24T07:40:28.542Z,85.53
2019-03-24T07:41:26.753Z,85.41
2019-03-24T07:42:26.690Z,85.22
2019-03-24T07:43:26.682Z,85.16
2019-03-24T07:44:26.702Z,84.83
2019-03-24T07:45:26.680Z,84.33
2019-03-24T07:46:26.680Z,84.43
2019-03-24T07:47:26.702Z,84.55
2019-03-24T07:48:26.771Z,85.08
2019-03-24T07:49:26.691Z,84.81
2019-03-24T07:50:26.708Z,84.82
2019-03-24T07:51:26.670Z,84.46
2019-03-24T07:52:26.678Z,83.39
2019-03-24T07:53:26.692Z,84.28
2019-03-24T07:54:26.721Z,83.99
2019-03-24T07:55:26.685Z,83.02
2019-03-24T07:56:26.676Z,83.26
2019-03-24T07:57:26.681Z,83.28
2019-03-24T07:58:26.654Z,83.02
2019-03-24T07:59:26.657Z,82.56
2019-03-24T08:00:26.731Z,82.96
2019-03-24T08:01:26.683Z,83.19
2019-03-24T08:02:26.698Z,82.81
2019-03-24T08:03:26.694Z,82.71
2019-03-24T08:04:26.674Z,82.24
2019-03-24T08:05:26.685Z,82.01
2019-03-24T08:06:26.682Z,82.38
2019-03-24T08:07:26.688Z,82.92
2019-03-24T08:08:26.754Z,83.12
2019-03-24T08:09:26.625Z,83.04
2019-03-24T08:10:26.745Z,82.68
2019-03-24T08:11:26.645Z,82.21
2019-03-24T08:12:26.648Z,81.95
2019-03-24T08:13:26.674Z,82.45
2019-03-24T08:14:26.671Z,82.29
2019-03-24T08:15:26.725Z,82.43
2019-03-24T08:16:26.669Z,82.31
2019-03-24T08:17:26.646Z,82.47
2019-03-24T08:18:30.519Z,82.01
2019-03-24T08:19:26.650Z,81.72
2019-03-24T08:20:26.661Z,81.58
2019-03-24T08:21:26.688Z,81
2019-03-24T08:22:26.628Z,81.49
2019-03-24T08:23:26.780Z,80.81
2019-03-24T08:24:26.655Z,80.9
2019-03-24T08:25:26.613Z,80.31
2019-03-24T08:26:26.644Z,80.64
2019-03-24T08:27:26.611Z,80.78
2019-03-24T08:28:26.882Z,80.69
2019-03-24T08:29:26.630Z,80.6
2019-03-24T08:30:28.998Z,80.72
2019-03-24T08:31:26.612Z,80.72
2019-03-24T08:32:26.641Z,80.64
2019-03-24T08:33:26.713Z,80.62
2019-03-24T08:34:26.733Z,80.46
2019-03-24T08:35:26.675Z,80.38
2019-03-24T08:36:26.619Z,80.36
2019-03-24T08:37:26.666Z,80.73
2019-03-24T08:38:29.534Z,80.72
2019-03-24T08:39:26.669Z,80.34
2019-03-24T08:40:26.781Z,80.4
2019-03-24T08:41:26.598Z,80.18
2019-03-24T08:42:26.604Z,80.04
2019-03-24T08:43:26.624Z,79.97
2019-03-24T08:44:26.613Z,79.87
2019-03-24T08:45:26.691Z,79.7
2019-03-24T08:46:26.597Z,79.78
2019-03-24T08:47:26.669Z,79.18
2019-03-24T08:48:26.573Z,79.11
2019-03-24T08:49:26.593Z,79.16
2019-03-24T08:50:26.592Z,78.48
2019-03-24T08:51:26.580Z,78.06
2019-03-24T08:52:26.636Z,77.5
2019-03-24T08:53:26.648Z,77.68
2019-03-24T08:54:26.636Z,77.98
2019-03-24T08:55:26.636Z,77.69
2019-03-24T08:56:26.631Z,77.77
2019-03-24T08:57:26.616Z,77.76
2019-03-24T08:58:26.612Z,77.69
2019-03-24T08:59:27.570Z,77.42
2019-03-24T09:00:31.299Z,77.36
2019-03-24T09:01:26.564Z,76.91
2019-03-24T09:02:26.585Z,77.18
2019-03-24T09:03:26.599Z,76.62
2019-03-24T09:04:26.585Z,76.66
2019-03-24T09:05:26.585Z,76.68
2019-03-24T09:06:26.569Z,76.35
2019-03-24T09:07:26.733Z,76.09
2019-03-24T09:08:26.564Z,76.02
2019-03-24T09:09:26.566Z,75.45
2019-03-24T09:10:26.600Z,75.39
2019-03-24T09:11:31.869Z,75.34
2019-03-24T09:12:31.463Z,75.46
2019-03-24T09:13:26.589Z,75.36
2019-03-24T09:14:26.558Z,75
2019-03-24T09:15:26.631Z,74.13
2019-03-24T09:16:26.668Z,73.74
2019-03-24T09:17:26.685Z,74.16
2019-03-24T09:18:26.602Z,74.13
2019-03-24T09:19:26.557Z,74.09
2019-03-24T09:20:26.569Z,73.91
2019-03-24T09:21:26.625Z,74
2019-03-24T09:22:26.581Z,74.35
2019-03-24T09:23:26.594Z,73.34
2019-03-24T09:24:26.567Z,73.4
2019-03-24T09:25:26.933Z,73.99
2019-03-24T09:26:26.587Z,73.6
2019-03-24T09:27:26.647Z,73.32
2019-03-24T09:28:26.596Z,73.39
2019-03-24T09:29:26.821Z,73.23
2019-03-24T09:30:26.669Z,72.56
2019-03-24T09:31:26.575Z,72.49
2019-03-24T09:32:26.604Z,72.94
2019-03-24T09:33:26.545Z,73.07
2019-03-24T09:34:26.564Z,72.65
2019-03-24T09:35:26.537Z,72.19
2019-03-24T09:36:26.707Z,72.18
2019-03-24T09:37:26.601Z,71.66
2019-03-24T09:38:26.582Z,71.47
2019-03-24T09:39:26.600Z,71.82
2019-03-24T09:40:26.524Z,72.15
2019-03-24T09:41:26.611Z,71.88
2019-03-24T09:42:26.565Z,71.49
2019-03-24T09:43:26.536Z,71.35
2019-03-24T09:44:26.574Z,71.44
2019-03-24T09:45:26.579Z,71.01
2019-03-24T09:46:26.602Z,70.18
2019-03-24T09:47:26.530Z,71.01
2019-03-24T09:48:26.601Z,71
2019-03-24T09:49:26.517Z,71.79
2019-03-24T09:50:26.712Z,72.1
2019-03-24T09:51:26.616Z,70.98
2019-03-24T09:52:26.511Z,70.74
2019-03-24T09:53:26.530Z,71.28
2019-03-24T09:54:26.526Z,71.11
2019-03-24T09:55:26.485Z,70.77
2019-03-24T09:56:27.528Z,70.7
2019-03-24T09:57:26.496Z,70.1
2019-03-24T09:58:26.494Z,70.12
2019-03-24T09:59:26.559Z,69.57
2019-03-24T10:00:26.523Z,69.61
2019-03-24T10:01:26.616Z,69.79
2019-03-24T10:02:26.524Z,69.65
2019-03-24T10:03:26.490Z,69.52
2019-03-24T10:04:27.450Z,70.05
2019-03-24T10:05:26.480Z,70.12
2019-03-24T10:06:26.488Z,69.89
2019-03-24T10:07:26.553Z,69.67
2019-03-24T10:08:26.499Z,68.96
2019-03-24T10:09:26.503Z,68.93
2019-03-24T10:10:26.616Z,69.24
2019-03-24T10:11:26.597Z,69
2019-03-24T10:12:26.527Z,68.93
2019-03-24T10:13:26.551Z,68.29
2019-03-24T10:14:26.514Z,68.44
2019-03-24T10:15:26.484Z,67.9
2019-03-24T10:16:26.531Z,68.11
2019-03-24T10:17:26.613Z,68.22
2019-03-24T10:18:27.672Z,68.28
2019-03-24T10:19:26.602Z,67.84
2019-03-24T10:20:26.537Z,67.97
2019-03-24T10:21:26.459Z,67.35
2019-03-24T10:22:26.442Z,67.66
2019-03-24T10:23:26.556Z,67.07
2019-03-24T10:24:26.434Z,66.77
2019-03-24T10:25:26.533Z,67.06
2019-03-24T10:26:27.079Z,66.7
2019-03-24T10:27:26.470Z,66.23
2019-03-24T10:28:26.440Z,66.47
2019-03-24T10:29:26.483Z,65.99
2019-03-24T10:30:26.520Z,65.94
2019-03-24T10:31:26.451Z,66.49
2019-03-24T10:32:26.482Z,66.38
2019-03-24T10:33:26.452Z,66.16
2019-03-24T10:34:26.527Z,65.97
2019-03-24T10:35:26.541Z,65.42
2019-03-24T10:36:27.577Z,65.82
2019-03-24T10:37:26.436Z,66.33
2019-03-24T10:38:26.462Z,66.02
2019-03-24T10:39:26.463Z,64.7
2019-03-24T10:40:29.321Z,64.37
2019-03-24T10:41:26.513Z,64.37
2019-03-24T10:42:26.544Z,64.68
2019-03-24T10:43:26.433Z,64.98
2019-03-24T10:44:26.546Z,64.95
2019-03-24T10:45:26.426Z,64.49
2019-03-24T10:46:26.432Z,64.72
2019-03-24T10:47:26.435Z,64.48
2019-03-24T10:48:34.119Z,64.75
2019-03-24T10:49:26.477Z,64.77
2019-03-24T10:50:26.481Z,64.51
2019-03-24T10:51:26.491Z,64.56
2019-03-24T10:52:26.444Z,64.77
2019-03-24T10:53:26.489Z,64.66
2019-03-24T10:54:26.681Z,64.69
2019-03-24T10:55:26.433Z,64.48
2019-03-24T10:56:26.447Z,62.86
2019-03-24T10:57:26.411Z,63.11
2019-03-24T10:58:26.643Z,63.09
2019-03-24T10:59:26.394Z,62.54
2019-03-24T11:00:26.458Z,62.94
2019-03-24T11:01:26.444Z,63.27
2019-03-24T11:02:26.433Z,63.39
2019-03-24T11:03:26.430Z,63.66
2019-03-24T11:04:26.541Z,63.74
2019-03-24T11:05:26.404Z,63.29
2019-03-24T11:06:26.510Z,63.3
2019-03-24T11:07:26.419Z,63.51
2019-03-24T11:08:26.483Z,63.21
2019-03-24T11:09:26.458Z,63.33
2019-03-24T11:10:26.579Z,63.41
2019-03-24T11:11:26.522Z,63.62
2019-03-24T11:12:26.566Z,63.7
2019-03-24T11:13:26.576Z,63.53
2019-03-24T11:14:26.388Z,63.63
2019-03-24T11:15:27.438Z,62.35
2019-03-24T11:16:26.391Z,61.52
2019-03-24T11:17:26.380Z,60.98
2019-03-24T11:18:26.383Z,61.51
2019-03-24T11:19:36.307Z,61.22
2019-03-24T11:20:26.378Z,60.82
2019-03-24T11:21:26.737Z,60.47
2019-03-24T11:22:26.389Z,60.83
2019-03-24T11:23:26.418Z,60.37
2019-03-24T11:24:26.372Z,60.32
2019-03-24T11:25:26.398Z,60.04
2019-03-24T11:26:26.462Z,60.19
2019-03-24T11:27:26.366Z,59.66
2019-03-24T11:28:26.381Z,59.57
2019-03-24T11:29:26.370Z,59.68
2019-03-24T11:30:26.461Z,59.14
2019-03-24T11:31:26.410Z,59.9
2019-03-24T11:32:26.341Z,59.86
2019-03-24T11:33:26.373Z,59.9
2019-03-24T11:34:26.480Z,60.01
2019-03-24T11:35:27.252Z,60.66
2019-03-24T11:36:26.403Z,60.44
2019-03-24T11:37:27.080Z,60.05
2019-03-24T11:38:26.438Z,60.03
2019-03-24T11:39:27.624Z,59.64
2019-03-24T11:40:26.471Z,59.52
2019-03-24T11:41:26.500Z,59.9
2019-03-24T11:42:26.378Z,60.16
2019-03-24T11:43:26.426Z,60.04
2019-03-24T11:44:26.396Z,59.38
2019-03-24T11:45:26.382Z,59.96
2019-03-24T11:46:26.366Z,59.83
2019-03-24T11:47:27.294Z,59.93
2019-03-24T11:48:26.395Z,59.3
2019-03-24T11:49:26.385Z,59.69
2019-03-24T11:50:26.414Z,59.93
2019-03-24T11:51:26.353Z,59.55
2019-03-24T11:52:26.382Z,60.04
2019-03-24T11:53:26.365Z,60.08
2019-03-24T11:54:26.375Z,60.03
2019-03-24T11:55:26.393Z,59.8
2019-03-24T11:56:26.330Z,59.6
2019-03-24T11:57:26.485Z,59.89
2019-03-24T11:58:26.522Z,59.46
2019-03-24T11:59:26.352Z,59.39
2019-03-24T12:00:27.428Z,59.73
2019-03-24T12:01:26.401Z,59.89
2019-03-24T12:02:26.395Z,59.41
2019-03-24T12:03:26.351Z,59.77
2019-03-24T12:04:26.364Z,59.31
2019-03-24T12:05:26.368Z,58.77
2019-03-24T12:06:26.400Z,58.96
2019-03-24T12:07:26.320Z,59.15
2019-03-24T12:08:26.337Z,59.07
2019-03-24T12:09:26.349Z,58.88
2019-03-24T12:10:26.347Z,59.1
2019-03-24T12:11:26.317Z,58.83
2019-03-24T12:12:26.358Z,58.72
2019-03-24T12:13:26.369Z,58.48
2019-03-24T12:14:26.332Z,58.57
2019-03-24T12:15:26.339Z,58.9
2019-03-24T12:16:26.340Z,59.01
2019-03-24T12:17:26.367Z,58.64
2019-03-24T12:18:27.430Z,58.53
2019-03-24T12:19:26.664Z,58.31
2019-03-24T12:20:26.751Z,57.86
2019-03-24T12:21:26.335Z,58.19
2019-03-24T12:22:26.310Z,57.88
2019-03-24T12:23:26.308Z,58.21
2019-03-24T12:24:26.398Z,58.75
2019-03-24T12:25:28.654Z,58.32
2019-03-24T12:26:26.356Z,58.28
2019-03-24T12:27:26.348Z,58.47
2019-03-24T12:28:26.326Z,58.6
2019-03-24T12:29:26.326Z,58.12
2019-03-24T12:30:26.319Z,58.16
2019-03-24T12:31:26.347Z,58.25
2019-03-24T12:32:26.359Z,58.23
2019-03-24T12:33:26.460Z,58.03
2019-03-24T12:34:26.350Z,58.23
2019-03-24T12:35:26.393Z,58.43
2019-03-24T12:36:26.340Z,57.83
2019-03-24T12:37:26.344Z,58.1
2019-03-24T12:38:26.278Z,58.03
2019-03-24T12:39:26.339Z,57.95
2019-03-24T12:40:27.289Z,57.95
2019-03-24T12:41:26.397Z,57.95
2019-03-24T12:42:26.536Z,57.42
2019-03-24T12:43:26.306Z,57.71
2019-03-24T12:44:26.422Z,57.55
2019-03-24T12:45:26.344Z,57.32
2019-03-24T12:46:27.445Z,57.33
2019-03-24T12:47:27.267Z,57.42
2019-03-24T12:48:26.550Z,57.44
2019-03-24T12:49:27.489Z,57.69
2019-03-24T12:50:32.099Z,57.5
2019-03-24T12:51:27.671Z,57.21
2019-03-24T12:52:26.347Z,57.74
2019-03-24T12:53:26.250Z,57.75
2019-03-24T12:54:26.283Z,57.49
2019-03-24T12:55:26.294Z,57.42
2019-03-24T12:56:26.366Z,57.16